Terminal Aerodrome Forecast
Issued by NWS Atlanta, GA

Home | Current Version | Previous Version | Text Only | Print | Product List | Glossary On
Versions: 1 2 3 4 5 6 7 8 9 10 11 12 13 14
203
FTUS42 KFFC 281736
TAFMCN
TAF
KMCN 281736Z 2818/2918 10008KT P6SM SCT050 BKN250
     FM282300 12006KT P6SM FEW070 BKN250
     FM290800 11004KT P6SM FEW025 OVC100
     FM291200 10004KT P6SM VCSH BKN010
     FM291600 11006KT 6SM -SHRA BKN018=

USA.gov is the U.S. government's official web portal to all federal, state and local government web resources and services.